Terminal Aerodrome Forecast
Issued by NWS Jackson, MS

Home | Current Version | Previous Version | Text Only | Print | Product List | Glossary On
Versions: 1 2 3 4 5 6 7 8 9 10 11 12
726
FTUS44 KJAN 222341
TAFGWO
TAF
KGWO 222341Z 2300/2324 30003KT P6SM SCT017 SCT030
     FM230600 22006KT P6SM BKN015 OVC025
     FM230900 22005KT 6SM BR OVC007
     FM231600 24007KT P6SM OVC015
     FM232200 27006KT P6SM BKN025 BKN035=

USA.gov is the U.S. government's official web portal to all federal, state and local government web resources and services.